Terminal Aerodrome Forecast
Issued by NWS Lubbock, TX

Home | Current Version | Previous Version | Text Only | Print | Product List | Glossary On
Versions: 1 2 3 4 5 6 7 8 9 10 11 12 13 14 15
000
FTUS44 KLUB 302332
TAFLBB
TAF
KLBB 302332Z 0100/0124 15011KT P6SM FEW070 SCT250
     FM010400 21012KT P6SM FEW025
     FM011500 21016G26KT P6SM FEW070=

USA.gov is the U.S. government's official web portal to all federal, state and local government web resources and services.